createdAt,value
2023-02-25T00:00:19.256Z,21.10
2023-02-25T00:01:22.696Z,20.70
2023-02-25T00:02:24.432Z,20.77
2023-02-25T00:03:26.084Z,21.47
2023-02-25T00:04:28.715Z,20.13
2023-02-25T00:05:31.856Z,20.90
2023-02-25T00:06:33.619Z,19.70
2023-02-25T00:07:35.212Z,19.93
2023-02-25T00:08:36.795Z,21.30
2023-02-25T00:09:38.392Z,21.23
2023-02-25T00:10:39.938Z,22.50
2023-02-25T00:11:41.483Z,20.57
2023-02-25T00:12:43.895Z,20.40
2023-02-25T00:13:45.969Z,20.07
2023-02-25T00:14:47.543Z,20.20
2023-02-25T00:15:49.055Z,20.43
2023-02-25T00:16:51.032Z,19.13
2023-02-25T00:17:52.644Z,18.93
2023-02-25T00:18:57.821Z,19.77
2023-02-25T00:20:00.565Z,19.43
2023-02-25T00:21:06.265Z,18.60
2023-02-25T00:22:07.809Z,19.57
2023-02-25T00:23:09.354Z,18.80
2023-02-25T00:24:16.505Z,19.00
2023-02-25T00:25:18.825Z,19.17
2023-02-25T00:26:21.879Z,18.83
2023-02-25T00:27:24.722Z,19.10
2023-02-25T00:28:27.102Z,19.13
2023-02-25T00:29:28.834Z,20.07
2023-02-25T00:30:30.394Z,19.83
2023-02-25T00:31:32.712Z,18.10
2023-02-25T00:32:34.454Z,18.00
2023-02-25T00:33:36.242Z,17.60
2023-02-25T00:34:37.772Z,17.70
2023-02-25T00:35:40.983Z,17.93
2023-02-25T00:36:42.574Z,18.03
2023-02-25T00:37:44.176Z,18.47
2023-02-25T00:38:50.186Z,18.67
2023-02-25T00:39:51.776Z,18.97
2023-02-25T00:40:53.334Z,19.17
2023-02-25T00:41:54.850Z,18.20
2023-02-25T00:42:56.398Z,19.80
2023-02-25T00:44:00.036Z,19.97
2023-02-25T00:45:01.620Z,20.70
2023-02-25T00:46:03.216Z,20.13
2023-02-25T00:47:05.269Z,19.93
2023-02-25T00:48:07.660Z,19.63
2023-02-25T00:49:09.205Z,21.17
2023-02-25T00:50:11.509Z,20.30
2023-02-25T00:51:19.560Z,18.50
2023-02-25T00:52:21.186Z,18.33
2023-02-25T00:53:22.775Z,21.00
2023-02-25T00:54:24.616Z,20.07
2023-02-25T00:55:33.363Z,18.63
2023-02-25T00:56:35.084Z,19.23
2023-02-25T00:57:36.626Z,19.50
2023-02-25T00:58:38.788Z,20.03
2023-02-25T00:59:40.347Z,19.83
2023-02-25T01:00:51.483Z,21.67
2023-02-25T01:01:53.499Z,22.53
2023-02-25T01:02:57.695Z,22.87
2023-02-25T01:04:01.347Z,22.17
2023-02-25T01:05:03.644Z,21.97
2023-02-25T01:06:08.419Z,22.10
2023-02-25T01:07:11.329Z,21.77
2023-02-25T01:08:12.864Z,21.97
2023-02-25T01:09:14.504Z,23.60
2023-02-25T01:10:16.438Z,20.77
2023-02-25T01:11:27.740Z,21.10
2023-02-25T01:12:30.259Z,20.53
2023-02-25T01:13:31.853Z,19.80
2023-02-25T01:14:33.422Z,19.80
2023-02-25T01:15:35.201Z,18.50
2023-02-25T01:16:37.310Z,18.27
2023-02-25T01:17:39.030Z,18.57
2023-02-25T01:18:40.761Z,18.37
2023-02-25T01:19:42.324Z,19.47
2023-02-25T01:20:43.839Z,18.70
2023-02-25T01:21:47.338Z,18.90
2023-02-25T01:22:48.954Z,20.47
2023-02-25T01:23:50.462Z,21.43
2023-02-25T01:24:54.959Z,21.10
2023-02-25T01:25:56.487Z,19.80
2023-02-25T01:27:01.310Z,20.17
2023-02-25T01:28:02.892Z,20.47
2023-02-25T01:29:09.075Z,21.27
2023-02-25T01:30:12.674Z,20.57
2023-02-25T01:31:29.524Z,21.63
2023-02-25T01:32:31.587Z,20.37
2023-02-25T01:33:33.267Z,20.77
2023-02-25T01:34:35.360Z,19.87
2023-02-25T01:35:37.026Z,20.00
2023-02-25T01:36:38.551Z,20.17
2023-02-25T01:37:40.666Z,21.33
2023-02-25T01:38:42.242Z,21.87
2023-02-25T01:39:43.803Z,21.93
2023-02-25T01:40:45.330Z,21.17
2023-02-25T01:41:48.847Z,21.37
2023-02-25T01:42:50.621Z,22.23
2023-02-25T01:44:14.083Z,23.47
2023-02-25T01:45:19.079Z,23.67
2023-02-25T01:46:21.035Z,23.27
2023-02-25T01:47:22.915Z,23.23
2023-02-25T01:48:29.220Z,23.77
2023-02-25T01:49:33.023Z,24.13
2023-02-25T01:50:58.684Z,24.17
2023-02-25T01:52:17.028Z,25.93
2023-02-25T01:53:24.492Z,23.50
2023-02-25T01:54:26.173Z,22.17
2023-02-25T01:55:28.036Z,22.47
2023-02-25T01:56:31.454Z,22.23
2023-02-25T01:57:32.997Z,22.73
2023-02-25T01:58:35.076Z,23.73
2023-02-25T01:59:39.134Z,22.80
2023-02-25T02:00:40.990Z,23.10
2023-02-25T02:01:43.702Z,24.13
2023-02-25T02:02:49.363Z,22.40
2023-02-25T02:03:52.277Z,24.70
2023-02-25T02:04:54.878Z,23.33
2023-02-25T02:06:02.575Z,23.77
2023-02-25T02:07:04.409Z,25.50
2023-02-25T02:08:06.348Z,24.03
2023-02-25T02:09:13.339Z,23.27
2023-02-25T02:10:14.900Z,23.03
2023-02-25T02:11:17.087Z,22.17
2023-02-25T02:12:18.690Z,23.13
2023-02-25T02:13:20.459Z,22.33
2023-02-25T02:14:27.383Z,23.53
2023-02-25T02:15:34.222Z,22.00
2023-02-25T02:16:53.439Z,21.70
2023-02-25T02:18:03.328Z,20.90
2023-02-25T02:19:50.465Z,21.57
2023-02-25T02:21:17.871Z,22.77
2023-02-25T02:22:43.953Z,24.07
2023-02-25T02:24:03.839Z,24.90
2023-02-25T02:25:08.087Z,21.97
2023-02-25T02:26:28.981Z,20.87
2023-02-25T02:27:56.779Z,21.33
2023-02-25T02:29:16.793Z,22.53
2023-02-25T02:30:35.061Z,21.13
2023-02-25T02:31:36.630Z,21.23
2023-02-25T02:32:47.894Z,22.33
2023-02-25T02:33:58.323Z,22.67
2023-02-25T02:35:20.731Z,22.43
2023-02-25T02:36:46.707Z,22.10
2023-02-25T02:38:13.128Z,23.03
2023-02-25T02:39:26.487Z,23.07
2023-02-25T02:40:54.637Z,21.70
2023-02-25T02:42:28.527Z,21.10
2023-02-25T02:44:12.309Z,22.60
2023-02-25T02:45:23.866Z,23.87
2023-02-25T02:46:39.526Z,24.17
2023-02-25T02:47:45.652Z,24.50
2023-02-25T02:48:54.459Z,26.27
2023-02-25T02:50:31.754Z,25.90
2023-02-25T02:51:43.610Z,25.10
2023-02-25T02:52:51.363Z,26.83
2023-02-25T02:53:57.386Z,25.33
2023-02-25T02:55:13.717Z,25.17
2023-02-25T02:56:19.160Z,23.20
2023-02-25T02:57:22.501Z,24.63
2023-02-25T02:58:35.347Z,25.27
2023-02-25T02:59:42.934Z,25.60
2023-02-25T03:00:49.498Z,25.83
2023-02-25T03:01:57.166Z,25.90
2023-02-25T03:03:07.228Z,26.03
2023-02-25T03:04:14.182Z,26.67
2023-02-25T03:05:17.585Z,25.33
2023-02-25T03:06:23.613Z,25.57
2023-02-25T03:07:26.146Z,26.23
2023-02-25T03:08:31.847Z,25.73
2023-02-25T03:09:41.032Z,25.53
2023-02-25T03:10:42.907Z,27.13
2023-02-25T03:11:44.839Z,26.13
2023-02-25T03:12:46.403Z,26.23
2023-02-25T03:13:48.327Z,26.43
2023-02-25T03:14:49.971Z,25.90
2023-02-25T03:15:53.041Z,26.63
2023-02-25T03:17:20.013Z,25.43
2023-02-25T03:18:49.537Z,25.03
2023-02-25T03:20:00.013Z,25.00
2023-02-25T03:21:07.112Z,25.20
2023-02-25T03:22:15.357Z,24.20
2023-02-25T03:23:28.732Z,22.83
2023-02-25T03:24:39.458Z,24.20
2023-02-25T03:25:54.344Z,23.23
2023-02-25T03:26:56.205Z,23.30
2023-02-25T03:28:05.693Z,22.87
2023-02-25T03:29:07.337Z,22.70
2023-02-25T03:30:15.153Z,21.87
2023-02-25T03:31:25.451Z,20.63
2023-02-25T03:32:29.058Z,20.63
2023-02-25T03:33:41.008Z,20.50
2023-02-25T03:34:46.724Z,20.23
2023-02-25T03:35:49.770Z,19.97
2023-02-25T03:37:00.065Z,19.67
2023-02-25T03:38:11.725Z,19.00
2023-02-25T03:39:20.946Z,18.37
2023-02-25T03:40:24.162Z,19.57
2023-02-25T03:41:31.491Z,19.20
2023-02-25T03:42:34.989Z,17.67
2023-02-25T03:43:43.892Z,17.90
2023-02-25T03:44:51.107Z,17.33
2023-02-25T03:45:54.459Z,19.70
2023-02-25T03:46:58.040Z,18.47
2023-02-25T03:48:00.182Z,19.07
2023-02-25T03:49:04.272Z,19.00
2023-02-25T03:50:12.144Z,17.60
2023-02-25T03:51:18.303Z,18.20
2023-02-25T03:52:22.878Z,19.37
2023-02-25T03:53:24.523Z,18.90
2023-02-25T03:54:27.422Z,19.10
2023-02-25T03:55:29.630Z,19.67
2023-02-25T03:56:41.491Z,19.07
2023-02-25T03:57:45.298Z,19.77
2023-02-25T03:58:46.827Z,18.97
2023-02-25T03:59:49.106Z,19.07
2023-02-25T04:00:56.092Z,18.13
2023-02-25T04:01:59.292Z,20.70
2023-02-25T04:03:01.177Z,19.03
2023-02-25T04:04:02.740Z,21.07
2023-02-25T04:05:04.554Z,20.50
2023-02-25T04:06:06.192Z,21.20
2023-02-25T04:07:07.764Z,21.57
2023-02-25T04:08:15.878Z,21.67
2023-02-25T04:09:18.337Z,23.67
2023-02-25T04:10:19.918Z,22.67
2023-02-25T04:11:21.539Z,23.83
2023-02-25T04:12:23.069Z,23.77
2023-02-25T04:13:24.655Z,23.90
2023-02-25T04:14:26.216Z,23.63
2023-02-25T04:15:29.429Z,23.50
2023-02-25T04:16:31.054Z,24.20
2023-02-25T04:17:33.514Z,28.40
2023-02-25T04:18:35.030Z,28.80
2023-02-25T04:19:36.630Z,29.77
2023-02-25T04:20:39.224Z,27.00
2023-02-25T04:21:40.854Z,28.03
2023-02-25T04:22:42.602Z,26.80
2023-02-25T04:23:44.152Z,26.13
2023-02-25T04:24:45.771Z,27.00
2023-02-25T04:25:47.335Z,26.03
2023-02-25T04:26:48.895Z,27.23
2023-02-25T04:27:50.624Z,27.57
2023-02-25T04:28:52.214Z,26.93
2023-02-25T04:29:53.805Z,27.53
2023-02-25T04:30:55.525Z,28.03
2023-02-25T04:31:57.353Z,27.03
2023-02-25T04:32:58.957Z,27.03
2023-02-25T04:34:00.557Z,26.67
2023-02-25T04:35:03.536Z,27.67
2023-02-25T04:36:05.526Z,29.03
2023-02-25T04:37:08.766Z,27.60
2023-02-25T04:38:10.928Z,28.10
2023-02-25T04:39:14.529Z,26.73
2023-02-25T04:40:19.386Z,26.50
2023-02-25T04:41:21.392Z,26.27
2023-02-25T04:42:22.947Z,26.50
2023-02-25T04:43:24.468Z,26.30
2023-02-25T04:44:26.515Z,25.30
2023-02-25T04:45:28.432Z,26.73
2023-02-25T04:46:30.513Z,26.30
2023-02-25T04:47:32.384Z,25.10
2023-02-25T04:48:33.914Z,24.50
2023-02-25T04:49:44.731Z,24.90
2023-02-25T04:50:46.283Z,24.97
2023-02-25T04:51:49.591Z,24.77
2023-02-25T04:52:51.201Z,24.53
2023-02-25T04:53:53.051Z,24.47
2023-02-25T04:54:54.567Z,24.20
2023-02-25T04:55:56.105Z,24.07
2023-02-25T04:56:57.662Z,24.50
2023-02-25T04:57:59.646Z,23.90
2023-02-25T04:59:01.223Z,21.93
2023-02-25T05:00:10.413Z,23.17
2023-02-25T05:01:12.806Z,23.23
2023-02-25T05:02:14.605Z,21.57
2023-02-25T05:03:16.216Z,22.73
2023-02-25T05:04:17.820Z,22.53
2023-02-25T05:05:19.672Z,21.17
2023-02-25T05:06:21.382Z,21.93
2023-02-25T05:07:23.156Z,21.47
2023-02-25T05:08:24.862Z,22.40
2023-02-25T05:09:26.757Z,22.13
2023-02-25T05:10:28.319Z,22.27
2023-02-25T05:11:29.865Z,22.53
2023-02-25T05:12:31.480Z,21.90
2023-02-25T05:13:33.145Z,21.70
2023-02-25T05:14:34.963Z,21.30
2023-02-25T05:15:36.483Z,20.60
2023-02-25T05:16:38.240Z,21.07
2023-02-25T05:17:40.457Z,22.53
2023-02-25T05:18:43.880Z,22.53
2023-02-25T05:19:45.411Z,21.17
2023-02-25T05:20:47.519Z,22.37
2023-02-25T05:21:50.867Z,20.13
2023-02-25T05:22:52.393Z,22.87
2023-02-25T05:23:54.267Z,22.40
2023-02-25T05:24:55.816Z,24.70
2023-02-25T05:25:58.836Z,23.63
2023-02-25T05:27:08.454Z,23.83
2023-02-25T05:28:13.062Z,23.23
2023-02-25T05:29:14.597Z,23.30
2023-02-25T05:30:16.290Z,23.03
2023-02-25T05:31:18.966Z,24.13
2023-02-25T05:32:20.709Z,24.77
2023-02-25T05:33:23.694Z,23.97
2023-02-25T05:34:25.692Z,24.23
2023-02-25T05:35:27.280Z,23.27
2023-02-25T05:36:29.683Z,24.40
2023-02-25T05:37:32.282Z,23.80
2023-02-25T05:38:34.783Z,24.33
2023-02-25T05:39:36.422Z,23.57
2023-02-25T05:40:39.788Z,23.07
2023-02-25T05:41:41.403Z,23.77
2023-02-25T05:42:42.972Z,24.60
2023-02-25T05:43:45.859Z,23.30
2023-02-25T05:44:47.435Z,23.47
2023-02-25T05:45:56.405Z,25.57
2023-02-25T05:46:57.993Z,24.90
2023-02-25T05:48:00.124Z,25.13
2023-02-25T05:49:01.891Z,24.30
2023-02-25T05:50:03.797Z,24.30
2023-02-25T05:51:08.619Z,24.53
2023-02-25T05:52:11.634Z,25.23
2023-02-25T05:53:13.217Z,23.50
2023-02-25T05:54:14.809Z,24.13
2023-02-25T05:55:16.384Z,23.87
2023-02-25T05:56:21.622Z,23.63
2023-02-25T05:57:24.155Z,23.03
2023-02-25T05:58:26.038Z,23.67
2023-02-25T05:59:27.676Z,23.30
2023-02-25T06:00:29.261Z,24.20
2023-02-25T06:01:31.761Z,22.93
2023-02-25T06:02:33.814Z,24.47
2023-02-25T06:03:35.382Z,23.53
2023-02-25T06:04:36.900Z,23.50
2023-02-25T06:05:42.228Z,24.20
2023-02-25T06:06:50.252Z,24.00
2023-02-25T06:07:51.836Z,24.90
2023-02-25T06:08:53.941Z,24.13
2023-02-25T06:10:00.012Z,24.67
2023-02-25T06:11:02.256Z,23.63
2023-02-25T06:12:04.040Z,25.83
2023-02-25T06:13:06.831Z,23.60
2023-02-25T06:14:08.362Z,23.20
2023-02-25T06:15:10.251Z,24.67
2023-02-25T06:16:11.855Z,23.70
2023-02-25T06:17:13.426Z,24.40
2023-02-25T06:18:15.024Z,23.50
2023-02-25T06:19:17.306Z,23.67
2023-02-25T06:20:19.032Z,21.80
2023-02-25T06:21:20.651Z,23.47
2023-02-25T06:22:22.672Z,22.03
2023-02-25T06:23:24.241Z,23.33
2023-02-25T06:24:25.822Z,23.53
2023-02-25T06:25:30.079Z,21.90
2023-02-25T06:26:31.786Z,22.87
2023-02-25T06:27:33.365Z,22.80
2023-02-25T06:28:36.362Z,22.00
2023-02-25T06:29:41.575Z,22.30
2023-02-25T06:30:43.206Z,23.30
2023-02-25T06:31:44.969Z,22.43
2023-02-25T06:32:46.625Z,23.47
2023-02-25T06:33:50.748Z,24.07
2023-02-25T06:34:52.293Z,24.33
2023-02-25T06:35:54.872Z,22.53
2023-02-25T06:36:56.421Z,23.77
2023-02-25T06:37:59.939Z,21.67
2023-02-25T06:39:01.700Z,23.00
2023-02-25T06:40:04.801Z,22.20
2023-02-25T06:41:15.454Z,22.73
2023-02-25T06:42:17.052Z,21.83
2023-02-25T06:43:18.635Z,22.40
2023-02-25T06:44:20.247Z,20.87
2023-02-25T06:45:21.842Z,21.33
2023-02-25T06:46:26.679Z,22.20
2023-02-25T06:47:28.565Z,21.30
2023-02-25T06:48:30.065Z,21.77
2023-02-25T06:49:31.639Z,20.53
2023-02-25T06:50:34.171Z,21.23
2023-02-25T06:51:35.710Z,21.77
2023-02-25T06:52:37.270Z,21.80
2023-02-25T06:53:40.933Z,20.60
2023-02-25T06:54:42.502Z,20.63
2023-02-25T06:55:44.090Z,19.73
2023-02-25T06:56:45.846Z,21.17
2023-02-25T06:57:47.400Z,20.43
2023-02-25T06:58:49.691Z,20.57
2023-02-25T06:59:53.268Z,21.33
2023-02-25T07:00:55.007Z,21.13
2023-02-25T07:01:56.586Z,20.70
2023-02-25T07:02:58.120Z,19.20
2023-02-25T07:03:59.888Z,20.23
2023-02-25T07:05:02.875Z,20.03
2023-02-25T07:06:05.075Z,20.63
2023-02-25T07:07:06.850Z,20.70
2023-02-25T07:08:08.453Z,19.67
2023-02-25T07:09:10.082Z,20.27
2023-02-25T07:10:12.186Z,19.70
2023-02-25T07:11:19.397Z,19.47
2023-02-25T07:12:21.028Z,19.80
2023-02-25T07:13:22.683Z,20.20
2023-02-25T07:14:24.599Z,18.80
2023-02-25T07:15:26.270Z,20.77
2023-02-25T07:16:30.046Z,19.33
2023-02-25T07:17:31.690Z,20.30
2023-02-25T07:18:33.470Z,19.87
2023-02-25T07:19:35.037Z,19.93
2023-02-25T07:20:39.196Z,20.00
2023-02-25T07:21:40.806Z,19.00
2023-02-25T07:22:42.502Z,19.60
2023-02-25T07:23:44.513Z,19.70
2023-02-25T07:24:46.123Z,19.20
2023-02-25T07:25:47.711Z,20.10
2023-02-25T07:26:49.861Z,19.60
2023-02-25T07:27:51.376Z,20.87
2023-02-25T07:28:52.933Z,20.23
2023-02-25T07:29:55.130Z,21.43
2023-02-25T07:30:56.887Z,22.17
2023-02-25T07:31:58.730Z,22.50
2023-02-25T07:33:00.419Z,23.37
2023-02-25T07:34:03.747Z,22.73
2023-02-25T07:35:05.927Z,19.63
2023-02-25T07:36:08.059Z,19.30
2023-02-25T07:37:09.580Z,18.90
2023-02-25T07:38:12.793Z,20.47
2023-02-25T07:39:14.329Z,20.00
2023-02-25T07:40:16.976Z,18.60
2023-02-25T07:41:19.552Z,18.77
2023-02-25T07:42:21.107Z,17.97
2023-02-25T07:43:22.638Z,18.37
2023-02-25T07:44:24.269Z,18.60
2023-02-25T07:45:25.903Z,22.20
2023-02-25T07:46:27.891Z,20.90
2023-02-25T07:47:29.451Z,20.70
2023-02-25T07:48:32.091Z,20.90
2023-02-25T07:49:33.668Z,17.13
2023-02-25T07:50:36.398Z,17.60
2023-02-25T07:51:38.181Z,18.57
2023-02-25T07:52:39.979Z,18.53
2023-02-25T07:53:41.563Z,17.63
2023-02-25T07:54:43.131Z,17.43
2023-02-25T07:55:45.301Z,17.23
2023-02-25T07:56:47.480Z,17.10
2023-02-25T07:57:49.044Z,17.40
2023-02-25T07:58:50.692Z,16.93
2023-02-25T07:59:52.284Z,17.10
2023-02-25T08:00:54.109Z,16.80
2023-02-25T08:01:55.662Z,16.83
2023-02-25T08:02:57.330Z,18.00
2023-02-25T08:04:04.243Z,18.70
2023-02-25T08:05:07.194Z,19.27
2023-02-25T08:06:09.131Z,18.67
2023-02-25T08:07:10.696Z,18.73
2023-02-25T08:08:13.190Z,17.87
2023-02-25T08:09:15.817Z,17.70
2023-02-25T08:10:17.704Z,18.23
2023-02-25T08:11:21.038Z,19.53
2023-02-25T08:12:23.145Z,19.73
2023-02-25T08:13:24.752Z,17.70
2023-02-25T08:14:26.378Z,18.60
2023-02-25T08:15:27.978Z,18.90
2023-02-25T08:16:29.529Z,18.77
2023-02-25T08:17:34.922Z,18.87
2023-02-25T08:18:37.362Z,17.73
2023-02-25T08:19:39.680Z,16.40
2023-02-25T08:20:47.259Z,16.23
2023-02-25T08:21:48.871Z,18.20
2023-02-25T08:22:50.520Z,18.90
2023-02-25T08:23:53.502Z,18.53
2023-02-25T08:24:55.037Z,17.20
2023-02-25T08:25:58.815Z,18.93
2023-02-25T08:27:00.408Z,15.40
2023-02-25T08:28:02.253Z,17.33
2023-02-25T08:29:04.801Z,18.67
2023-02-25T08:30:08.703Z,19.20
2023-02-25T08:31:12.199Z,17.87
2023-02-25T08:32:14.005Z,17.33
2023-02-25T08:33:16.010Z,16.67
2023-02-25T08:34:18.587Z,16.67
2023-02-25T08:35:20.136Z,17.67
2023-02-25T08:36:24.746Z,17.87
2023-02-25T08:37:26.883Z,17.30
2023-02-25T08:38:28.589Z,16.60
2023-02-25T08:39:31.156Z,18.43
2023-02-25T08:40:33.092Z,18.20
2023-02-25T08:41:34.742Z,18.63
2023-02-25T08:42:37.279Z,19.80
2023-02-25T08:43:40.984Z,18.13
2023-02-25T08:44:42.707Z,18.50
2023-02-25T08:45:44.334Z,17.20
2023-02-25T08:46:46.489Z,15.83
2023-02-25T08:47:48.112Z,15.57
2023-02-25T08:48:50.662Z,17.50
2023-02-25T08:49:52.561Z,18.53
2023-02-25T08:50:55.609Z,17.73
2023-02-25T08:51:57.529Z,17.47
2023-02-25T08:52:59.294Z,16.63
2023-02-25T08:54:06.854Z,17.17
2023-02-25T08:55:08.942Z,16.93
2023-02-25T08:56:12.949Z,17.43
2023-02-25T08:57:14.487Z,16.37
2023-02-25T08:58:16.038Z,15.93
2023-02-25T08:59:17.773Z,16.57
2023-02-25T09:00:21.312Z,17.80
2023-02-25T09:01:23.781Z,16.63
2023-02-25T09:02:25.639Z,17.40
2023-02-25T09:03:27.395Z,16.50
2023-02-25T09:04:29.239Z,16.77
2023-02-25T09:05:30.891Z,16.03
2023-02-25T09:06:34.011Z,17.10
2023-02-25T09:07:35.626Z,15.97
2023-02-25T09:08:37.169Z,16.27
2023-02-25T09:09:38.678Z,15.43
2023-02-25T09:10:49.945Z,14.83
2023-02-25T09:11:55.715Z,16.57
2023-02-25T09:12:57.238Z,16.17
2023-02-25T09:13:59.275Z,15.80
2023-02-25T09:15:00.920Z,16.43
2023-02-25T09:16:02.895Z,16.03
2023-02-25T09:17:06.270Z,16.67
2023-02-25T09:18:07.808Z,16.87
2023-02-25T09:19:10.850Z,15.57
2023-02-25T09:20:12.468Z,13.80
2023-02-25T09:21:14.685Z,15.77
2023-02-25T09:22:16.313Z,15.27
2023-02-25T09:23:18.076Z,14.63
2023-02-25T09:24:19.780Z,14.93
2023-02-25T09:25:21.656Z,15.83
2023-02-25T09:26:23.234Z,15.10
2023-02-25T09:27:24.806Z,15.77
2023-02-25T09:28:26.325Z,15.93
2023-02-25T09:29:27.884Z,15.47
2023-02-25T09:30:29.427Z,14.60
2023-02-25T09:31:33.700Z,15.07
2023-02-25T09:32:35.470Z,16.00
2023-02-25T09:33:37.936Z,16.33
2023-02-25T09:34:39.463Z,15.97
2023-02-25T09:35:41.854Z,15.93
2023-02-25T09:36:43.467Z,15.90
2023-02-25T09:37:45.042Z,15.60
2023-02-25T09:38:48.463Z,15.83
2023-02-25T09:39:50.173Z,14.57
2023-02-25T09:40:51.896Z,15.17
2023-02-25T09:41:57.830Z,13.97
2023-02-25T09:43:09.101Z,15.00
2023-02-25T09:44:36.292Z,14.27
2023-02-25T09:45:38.240Z,14.40
2023-02-25T09:46:49.921Z,14.93
2023-02-25T09:48:06.421Z,14.83
2023-02-25T09:49:19.044Z,15.70
2023-02-25T09:50:27.491Z,14.70
2023-02-25T09:51:40.411Z,14.77
2023-02-25T09:52:47.122Z,13.37
2023-02-25T09:54:01.295Z,13.40
2023-02-25T09:55:19.789Z,13.70
2023-02-25T09:56:26.599Z,13.83
2023-02-25T09:57:29.623Z,14.77
2023-02-25T09:58:40.893Z,13.63
2023-02-25T09:59:42.477Z,13.93
2023-02-25T10:00:55.545Z,15.03
2023-02-25T10:02:02.808Z,13.57
2023-02-25T10:03:14.609Z,14.17
2023-02-25T10:04:28.843Z,13.60
2023-02-25T10:06:05.856Z,14.53
2023-02-25T10:07:22.778Z,14.00
2023-02-25T10:08:33.137Z,12.60
2023-02-25T10:09:59.068Z,13.90
2023-02-25T10:11:10.255Z,14.23
2023-02-25T10:12:23.061Z,13.53
2023-02-25T10:13:43.099Z,13.10
2023-02-25T10:15:21.986Z,13.17
2023-02-25T10:16:43.506Z,12.57
2023-02-25T10:18:06.303Z,11.80
2023-02-25T10:19:40.869Z,13.40
2023-02-25T10:20:57.868Z,12.80
2023-02-25T10:22:07.455Z,12.50
2023-02-25T10:23:35.472Z,12.93
2023-02-25T10:24:45.684Z,12.97
2023-02-25T10:25:53.068Z,12.20
2023-02-25T10:27:30.298Z,12.67
2023-02-25T10:28:35.893Z,12.10
2023-02-25T10:29:42.637Z,12.00
2023-02-25T10:31:03.934Z,12.30
2023-02-25T10:32:33.977Z,11.53
2023-02-25T10:33:38.271Z,12.53
2023-02-25T10:34:39.812Z,13.17
2023-02-25T10:35:42.910Z,12.97
2023-02-25T10:36:52.118Z,11.30
2023-02-25T10:37:53.707Z,11.13
2023-02-25T10:38:55.363Z,11.87
2023-02-25T10:39:59.363Z,11.47
2023-02-25T10:41:01.139Z,10.93
2023-02-25T10:42:03.193Z,11.57
2023-02-25T10:43:20.247Z,12.40
2023-02-25T10:44:21.868Z,11.60
2023-02-25T10:45:30.157Z,12.33
2023-02-25T10:46:45.518Z,11.33
2023-02-25T10:47:52.349Z,10.73
2023-02-25T10:48:58.306Z,11.30
2023-02-25T10:50:44.539Z,10.80
2023-02-25T10:52:14.247Z,11.50
2023-02-25T10:53:18.062Z,11.47
2023-02-25T10:54:24.184Z,11.73
2023-02-25T10:55:43.922Z,11.37
2023-02-25T10:56:47.211Z,11.93
2023-02-25T10:57:50.496Z,10.77
2023-02-25T10:59:06.930Z,10.40
2023-02-25T11:00:31.060Z,10.23
2023-02-25T11:01:39.628Z,12.00
2023-02-25T11:02:43.622Z,11.50
2023-02-25T11:04:06.543Z,11.17
2023-02-25T11:05:42.123Z,10.70
2023-02-25T11:06:44.644Z,11.00
2023-02-25T11:07:48.730Z,10.60
2023-02-25T11:08:52.276Z,11.67
2023-02-25T11:10:19.745Z,10.90
2023-02-25T11:11:24.398Z,11.83
2023-02-25T11:12:26.067Z,11.57
2023-02-25T11:13:30.200Z,11.00
2023-02-25T11:14:34.417Z,10.67
2023-02-25T11:15:45.216Z,9.37
2023-02-25T11:16:47.577Z,10.57
2023-02-25T11:17:49.195Z,7.60
2023-02-25T11:18:54.598Z,9.47
2023-02-25T11:20:01.712Z,9.87
2023-02-25T11:21:07.355Z,11.30
2023-02-25T11:22:37.459Z,11.00
2023-02-25T11:23:48.049Z,10.23
2023-02-25T11:25:01.427Z,11.13
2023-02-25T11:26:04.340Z,10.30
2023-02-25T11:27:07.864Z,10.83
2023-02-25T11:28:22.682Z,9.50
2023-02-25T11:29:32.302Z,11.13
2023-02-25T11:30:40.062Z,10.20
2023-02-25T11:31:43.665Z,11.37
2023-02-25T11:32:55.316Z,10.80
2023-02-25T11:33:59.706Z,11.27
2023-02-25T11:35:08.915Z,10.43
2023-02-25T11:36:11.279Z,8.50
2023-02-25T11:37:37.804Z,10.80
2023-02-25T11:38:44.255Z,8.63
2023-02-25T11:39:56.244Z,9.70
2023-02-25T11:40:57.871Z,10.30
2023-02-25T11:42:17.998Z,12.77
2023-02-25T11:44:39.877Z,10.87
2023-02-25T11:45:54.330Z,10.73
2023-02-25T11:46:59.081Z,10.10
2023-02-25T11:48:05.368Z,10.43
2023-02-25T11:49:09.755Z,8.77
2023-02-25T11:50:35.538Z,8.27
2023-02-25T11:51:52.147Z,9.77
2023-02-25T11:53:17.145Z,9.53
2023-02-25T11:54:42.150Z,9.60
2023-02-25T11:55:46.567Z,9.57
2023-02-25T11:56:56.181Z,9.60
2023-02-25T11:58:15.061Z,9.73
2023-02-25T11:59:37.801Z,9.70
2023-02-25T12:01:00.984Z,27.07
2023-02-25T12:02:27.871Z,10.53
2023-02-25T12:03:35.202Z,8.87
2023-02-25T12:04:45.861Z,11.20
2023-02-25T12:06:00.017Z,10.23
2023-02-25T12:07:20.624Z,10.80
2023-02-25T12:08:37.817Z,10.10
2023-02-25T12:09:58.030Z,9.20
2023-02-25T12:11:44.004Z,10.70
2023-02-25T12:13:07.075Z,11.13
2023-02-25T12:14:25.735Z,9.97
2023-02-25T12:16:15.161Z,10.10
2023-02-25T12:17:53.973Z,10.50
2023-02-25T12:19:21.677Z,9.97
2023-02-25T12:20:23.199Z,10.40
2023-02-25T12:21:50.023Z,11.50
2023-02-25T12:23:45.885Z,10.40
2023-02-25T12:24:58.984Z,11.70
2023-02-25T12:26:14.573Z,12.00
2023-02-25T12:27:36.217Z,12.00
2023-02-25T12:28:49.884Z,11.50
2023-02-25T12:30:20.768Z,13.30
2023-02-25T12:31:34.187Z,12.03
2023-02-25T12:32:56.735Z,12.83
2023-02-25T12:34:22.813Z,13.10
2023-02-25T12:35:52.317Z,12.80
2023-02-25T12:37:12.776Z,12.93
2023-02-25T12:38:41.964Z,13.17
2023-02-25T12:40:21.704Z,13.13
2023-02-25T12:41:45.776Z,12.50
2023-02-25T12:43:01.060Z,13.40
2023-02-25T12:44:17.816Z,12.63
2023-02-25T12:45:40.981Z,11.57
2023-02-25T12:47:02.061Z,12.33
2023-02-25T12:48:09.287Z,12.63
2023-02-25T12:49:31.009Z,13.13
2023-02-25T12:50:50.937Z,10.40
2023-02-25T12:52:10.957Z,10.87
2023-02-25T12:53:18.631Z,10.93
2023-02-25T12:54:59.430Z,12.87
2023-02-25T12:56:28.984Z,10.73
2023-02-25T12:58:02.905Z,10.23
2023-02-25T12:59:39.940Z,11.47
2023-02-25T13:01:23.285Z,11.97
2023-02-25T13:02:54.483Z,10.83
2023-02-25T13:04:03.676Z,12.93
2023-02-25T13:05:51.199Z,10.63
2023-02-25T13:07:14.397Z,11.17
2023-02-25T13:08:32.532Z,10.73
2023-02-25T13:10:01.228Z,10.77
2023-02-25T13:11:21.627Z,12.60
2023-02-25T13:12:38.266Z,11.27
2023-02-25T13:13:42.783Z,11.07
2023-02-25T13:14:56.140Z,10.33
2023-02-25T13:16:15.754Z,10.87
2023-02-25T13:17:46.401Z,11.67
2023-02-25T13:19:15.060Z,11.60
2023-02-25T13:20:36.483Z,9.77
2023-02-25T13:22:08.953Z,10.40
2023-02-25T13:23:45.529Z,9.47
2023-02-25T13:25:04.495Z,11.30
2023-02-25T13:26:44.264Z,10.70
2023-02-25T13:28:30.534Z,9.57
2023-02-25T13:29:56.699Z,12.17
2023-02-25T13:31:13.423Z,11.03
2023-02-25T13:32:52.369Z,11.10
2023-02-25T13:34:08.663Z,10.80
2023-02-25T13:35:19.362Z,10.87
2023-02-25T13:36:26.903Z,10.60
2023-02-25T13:37:28.425Z,11.23
2023-02-25T13:38:41.818Z,11.27
2023-02-25T13:39:55.430Z,12.10
2023-02-25T13:41:06.142Z,10.70
2023-02-25T13:42:38.857Z,10.83
2023-02-25T13:44:09.746Z,11.10
2023-02-25T13:45:30.194Z,10.10
2023-02-25T13:46:52.806Z,8.83
2023-02-25T13:47:54.416Z,12.07
2023-02-25T13:49:02.838Z,11.70
2023-02-25T13:50:15.323Z,12.17
2023-02-25T13:51:34.617Z,10.77
2023-02-25T13:53:00.443Z,11.90
2023-02-25T13:54:20.842Z,9.53
2023-02-25T13:55:59.651Z,13.13
2023-02-25T13:57:46.212Z,12.77
2023-02-25T13:59:02.607Z,12.67
2023-02-25T14:00:09.857Z,12.90
2023-02-25T14:01:35.900Z,11.23
2023-02-25T14:03:05.065Z,11.40
2023-02-25T14:04:21.665Z,11.80
2023-02-25T14:06:04.752Z,12.93
2023-02-25T14:07:37.033Z,14.00
2023-02-25T14:08:53.524Z,13.17
2023-02-25T14:10:16.753Z,12.30
2023-02-25T14:12:06.322Z,12.73
2023-02-25T14:13:53.235Z,13.77
2023-02-25T14:15:18.613Z,11.87
2023-02-25T14:16:37.348Z,13.33
2023-02-25T14:18:11.079Z,12.07
2023-02-25T14:19:15.540Z,11.57
2023-02-25T14:20:35.989Z,12.87
2023-02-25T14:22:08.507Z,12.57
2023-02-25T14:23:24.799Z,11.90
2023-02-25T14:24:38.719Z,12.30
2023-02-25T14:25:49.420Z,12.13
2023-02-25T14:26:57.368Z,12.63
2023-02-25T14:28:40.804Z,12.50
2023-02-25T14:30:04.309Z,12.20
2023-02-25T14:31:27.422Z,12.50
2023-02-25T14:32:47.393Z,10.50
2023-02-25T14:34:06.579Z,11.67
2023-02-25T14:35:34.069Z,12.17
2023-02-25T14:36:50.952Z,11.40
2023-02-25T14:38:15.618Z,11.90
2023-02-25T14:39:31.877Z,10.90